createdAt,value
2023-10-18T00:00:29.579Z,3.12
2023-10-18T00:05:53.024Z,2.90
2023-10-18T00:11:18.076Z,2.69
2023-10-18T00:16:41.061Z,3.68
2023-10-18T00:22:04.074Z,3.81
2023-10-18T00:27:28.470Z,3.96
2023-10-18T00:32:51.556Z,3.83
2023-10-18T00:38:17.971Z,4.02
2023-10-18T00:43:45.537Z,4.07
2023-10-18T00:49:15.190Z,3.68
2023-10-18T00:54:40.549Z,4.15
2023-10-18T01:00:09.937Z,3.76
2023-10-18T01:05:33.090Z,3.43
2023-10-18T01:10:58.497Z,3.01
2023-10-18T01:16:23.455Z,3.57
2023-10-18T01:21:47.841Z,3.54
2023-10-18T01:27:14.756Z,3.58
2023-10-18T01:32:37.723Z,3.58
2023-10-18T01:38:05.338Z,3.31
2023-10-18T01:43:29.736Z,3.43
2023-10-18T01:48:53.466Z,2.93
2023-10-18T01:54:17.023Z,2.97
2023-10-18T01:59:41.487Z,2.68
2023-10-18T02:05:07.226Z,2.70
2023-10-18T02:10:30.284Z,2.73
2023-10-18T02:15:54.960Z,2.90
2023-10-18T02:21:18.041Z,3.01
2023-10-18T02:26:54.481Z,2.93
2023-10-18T02:32:24.615Z,2.85
2023-10-18T02:37:47.778Z,2.83
2023-10-18T02:43:12.496Z,2.86
2023-10-18T02:48:38.805Z,2.80
2023-10-18T02:54:09.134Z,2.92
2023-10-18T02:59:33.018Z,3.01
2023-10-18T03:04:57.514Z,2.83
2023-10-18T03:10:28.990Z,2.92
2023-10-18T03:16:06.270Z,2.74
2023-10-18T03:21:33.891Z,2.64
2023-10-18T03:27:07.347Z,2.59
2023-10-18T03:32:31.634Z,2.69
2023-10-18T03:38:04.436Z,2.61
2023-10-18T03:43:33.280Z,2.55
2023-10-18T03:48:57.189Z,2.81
2023-10-18T03:54:24.688Z,2.69
2023-10-18T03:59:48.015Z,2.32
2023-10-18T04:05:18.037Z,2.17
2023-10-18T04:10:42.853Z,2.09
2023-10-18T04:16:11.540Z,2.07
2023-10-18T04:21:37.755Z,2.31
2023-10-18T04:27:05.708Z,2.26
2023-10-18T04:32:28.897Z,2.37
2023-10-18T04:37:51.902Z,2.04
2023-10-18T04:43:19.812Z,2.04
2023-10-18T04:49:01.537Z,2.26
2023-10-18T04:54:36.908Z,2.42
2023-10-18T05:00:12.050Z,2.65
2023-10-18T05:05:45.851Z,2.49
2023-10-18T05:11:23.192Z,2.30
2023-10-18T05:16:48.249Z,2.11
2023-10-18T05:22:17.031Z,2.42
2023-10-18T05:27:47.485Z,2.16
2023-10-18T05:33:16.830Z,2.08
2023-10-18T05:38:51.756Z,2.41
2023-10-18T05:44:15.344Z,2.15
2023-10-18T05:49:42.991Z,1.96
2023-10-18T05:55:13.014Z,2.27
2023-10-18T06:00:37.130Z,1.74
2023-10-18T06:06:01.638Z,2.27
2023-10-18T06:11:24.636Z,1.95
2023-10-18T06:16:52.583Z,2.00
2023-10-18T06:22:29.350Z,1.94
2023-10-18T06:27:52.731Z,2.24
2023-10-18T06:33:16.998Z,2.12
2023-10-18T06:38:43.631Z,2.31
2023-10-18T06:44:12.443Z,2.38
2023-10-18T06:49:35.514Z,2.30
2023-10-18T06:55:02.020Z,2.60
2023-10-18T07:00:31.658Z,2.67
2023-10-18T07:05:55.616Z,3.49
2023-10-18T07:11:28.556Z,2.94
2023-10-18T07:16:57.530Z,2.71
2023-10-18T07:22:22.435Z,3.03
2023-10-18T07:27:46.867Z,3.07
2023-10-18T07:33:12.890Z,3.72
2023-10-18T07:38:38.804Z,3.23
2023-10-18T07:44:06.739Z,3.85
2023-10-18T07:49:32.525Z,3.81
2023-10-18T07:54:55.624Z,2.60
2023-10-18T08:00:23.958Z,3.78
2023-10-18T08:05:51.731Z,4.53
2023-10-18T08:11:15.947Z,5.02
2023-10-18T08:16:46.148Z,5.15
2023-10-18T08:22:24.332Z,5.09
2023-10-18T08:27:47.750Z,5.66
2023-10-18T08:33:12.565Z,5.64
2023-10-18T08:38:35.506Z,5.13
2023-10-18T08:44:09.923Z,5.94
2023-10-18T08:49:36.384Z,6.43
2023-10-18T08:55:20.502Z,6.64
2023-10-18T09:01:01.312Z,6.68
2023-10-18T09:06:32.247Z,6.35
2023-10-18T09:11:56.671Z,6.84
2023-10-18T09:17:24.315Z,6.92
2023-10-18T09:22:50.800Z,6.66
2023-10-18T09:28:19.503Z,7.04
2023-10-18T09:33:50.206Z,7.35
2023-10-18T09:39:16.529Z,8.32
2023-10-18T09:44:43.338Z,6.74
2023-10-18T09:50:10.785Z,8.01
2023-10-18T09:55:36.496Z,9.33
2023-10-18T10:01:14.972Z,9.75
2023-10-18T10:06:46.587Z,9.39
2023-10-18T10:12:12.393Z,10.08
2023-10-18T10:17:37.751Z,11.46
2023-10-18T10:23:03.808Z,12.06
2023-10-18T10:29:04.240Z,14.31
2023-10-18T10:34:29.651Z,13.63
2023-10-18T10:40:16.892Z,13.62
2023-10-18T10:45:55.266Z,15.94
2023-10-18T10:51:22.523Z,15.58
2023-10-18T10:56:54.919Z,15.86
2023-10-18T11:02:25.412Z,17.44
2023-10-18T11:07:48.580Z,16.38
2023-10-18T11:13:14.457Z,13.96
2023-10-18T11:18:44.104Z,13.46
2023-10-18T11:24:12.319Z,15.44
2023-10-18T11:29:41.827Z,13.24
2023-10-18T11:35:11.526Z,12.29
2023-10-18T11:40:35.340Z,12.39
2023-10-18T11:46:09.346Z,12.57
2023-10-18T11:51:46.351Z,11.77
2023-10-18T11:57:26.110Z,13.37
2023-10-18T12:02:49.536Z,12.35
2023-10-18T12:08:15.044Z,12.70
2023-10-18T12:13:38.645Z,12.62
2023-10-18T12:19:02.289Z,12.88
2023-10-18T12:24:28.553Z,12.48
2023-10-18T12:29:53.469Z,13.20
2023-10-18T12:35:16.962Z,14.83
2023-10-18T12:40:42.794Z,13.97
2023-10-18T12:46:07.357Z,13.40
2023-10-18T12:56:59.279Z,13.90
2023-10-18T13:07:53.883Z,14.71
2023-10-18T13:13:18.889Z,16.70
2023-10-18T13:18:47.045Z,16.80
2023-10-18T13:24:30.039Z,16.62
2023-10-18T13:30:02.477Z,16.06
2023-10-18T13:35:25.690Z,15.53
2023-10-18T13:40:50.274Z,15.72
2023-10-18T13:46:19.826Z,16.00
2023-10-18T13:51:44.089Z,16.42
2023-10-18T13:57:08.827Z,14.26
2023-10-18T14:02:32.970Z,16.56
2023-10-18T14:07:56.196Z,17.66
2023-10-18T14:13:20.490Z,16.17
2023-10-18T14:18:44.433Z,17.68
2023-10-18T14:24:09.151Z,16.89
2023-10-18T14:29:33.933Z,18.85
2023-10-18T14:34:58.626Z,17.58
2023-10-18T14:40:24.781Z,15.95
2023-10-18T14:45:49.167Z,14.35
2023-10-18T14:51:12.371Z,14.57
2023-10-18T14:56:35.629Z,13.84
2023-10-18T15:02:00.121Z,14.32
2023-10-18T15:07:23.155Z,13.12
2023-10-18T15:12:46.215Z,11.96
2023-10-18T15:18:10.703Z,12.24
2023-10-18T15:23:36.509Z,12.30
2023-10-18T15:28:59.485Z,11.88
2023-10-18T15:34:31.464Z,12.43
2023-10-18T15:39:57.310Z,11.69
2023-10-18T15:45:21.641Z,12.72
2023-10-18T15:50:46.186Z,13.07
2023-10-18T15:56:12.010Z,12.22
2023-10-18T16:01:51.060Z,11.77
2023-10-18T16:07:19.436Z,11.64
2023-10-18T16:12:42.846Z,12.23
2023-10-18T16:18:06.745Z,11.11
2023-10-18T16:23:31.473Z,11.34
2023-10-18T16:28:54.628Z,11.07
2023-10-18T16:34:20.711Z,11.27
2023-10-18T16:39:45.219Z,11.08
2023-10-18T16:45:09.811Z,11.00
2023-10-18T16:50:32.890Z,10.35
2023-10-18T16:55:57.783Z,10.36
2023-10-18T17:01:22.089Z,10.36
2023-10-18T17:06:46.188Z,10.27
2023-10-18T17:12:12.081Z,10.04
2023-10-18T17:17:35.089Z,10.50
2023-10-18T17:22:58.443Z,9.82
2023-10-18T17:28:24.938Z,10.84
2023-10-18T17:33:48.449Z,10.41
2023-10-18T17:39:12.715Z,9.73
2023-10-18T17:44:38.566Z,10.32
2023-10-18T17:50:02.263Z,10.70
2023-10-18T17:55:25.992Z,9.72
2023-10-18T18:00:56.139Z,10.30
2023-10-18T18:06:19.950Z,9.33
2023-10-18T18:11:42.988Z,9.23
2023-10-18T18:17:08.491Z,9.27
2023-10-18T18:22:32.968Z,9.08
2023-10-18T18:27:57.827Z,8.89
2023-10-18T18:33:22.985Z,9.03
2023-10-18T18:38:46.118Z,8.96
2023-10-18T18:44:09.122Z,8.86
2023-10-18T18:49:33.392Z,9.49
2023-10-18T18:54:56.655Z,8.88
2023-10-18T19:00:21.642Z,8.75
2023-10-18T19:05:47.061Z,8.53
2023-10-18T19:11:19.924Z,8.32
2023-10-18T19:16:42.982Z,8.41
2023-10-18T19:22:07.492Z,7.93
2023-10-18T19:27:30.656Z,7.82
2023-10-18T19:32:56.019Z,7.77
2023-10-18T19:38:22.751Z,8.08
2023-10-18T19:43:46.391Z,7.60
2023-10-18T19:49:10.465Z,7.72
2023-10-18T19:54:35.031Z,7.62
2023-10-18T19:59:58.313Z,7.89
2023-10-18T20:05:22.218Z,8.18
2023-10-18T20:10:46.574Z,8.17
2023-10-18T20:16:12.033Z,7.85
2023-10-18T20:21:36.675Z,8.48
2023-10-18T20:27:01.088Z,9.00
2023-10-18T20:32:24.378Z,9.34
2023-10-18T20:37:47.756Z,9.56
2023-10-18T20:43:13.290Z,9.46
2023-10-18T20:48:36.533Z,9.30
2023-10-18T20:53:59.737Z,9.41
2023-10-18T20:59:25.758Z,9.14
2023-10-18T21:04:49.851Z,9.13
2023-10-18T21:10:14.587Z,8.43
2023-10-18T21:15:39.975Z,8.89
2023-10-18T21:21:06.333Z,8.43
2023-10-18T21:26:29.487Z,8.32
2023-10-18T21:31:54.201Z,7.76
2023-10-18T21:37:17.358Z,8.06
2023-10-18T21:42:40.938Z,7.06
2023-10-18T21:48:06.270Z,7.50
2023-10-18T21:53:30.359Z,7.39
2023-10-18T21:58:54.199Z,6.87
2023-10-18T22:04:20.979Z,7.72
2023-10-18T22:09:53.903Z,7.25
2023-10-18T22:15:20.334Z,7.24
2023-10-18T22:20:46.410Z,7.97
2023-10-18T22:26:15.966Z,8.17
2023-10-18T22:31:39.509Z,6.96
2023-10-18T22:37:07.885Z,7.46
2023-10-18T22:42:39.829Z,8.20
2023-10-18T22:48:22.549Z,7.46
2023-10-18T22:53:52.523Z,7.27
2023-10-18T22:59:17.894Z,7.99
2023-10-18T23:04:45.381Z,8.14
2023-10-18T23:10:12.372Z,7.18
2023-10-18T23:15:48.796Z,8.20
2023-10-18T23:21:31.160Z,7.31
2023-10-18T23:27:13.831Z,8.36
2023-10-18T23:32:53.659Z,8.65
2023-10-18T23:38:24.113Z,8.57
2023-10-18T23:43:50.496Z,8.11
2023-10-18T23:49:46.206Z,7.93
2023-10-18T23:55:15.098Z,8.11
